createdAt,value
2022-10-13T00:01:11.012Z,19.75
2022-10-13T00:03:42.183Z,22.98
2022-10-13T00:06:11.631Z,21.60
2022-10-13T00:08:40.857Z,22.73
2022-10-13T00:11:14.204Z,22.05
2022-10-13T00:13:42.665Z,21.25
2022-10-13T00:16:12.587Z,21.70
2022-10-13T00:18:42.529Z,24.48
2022-10-13T00:21:11.826Z,23.95
2022-10-13T00:23:40.336Z,24.02
2022-10-13T00:26:10.837Z,24.38
2022-10-13T00:28:39.778Z,26.38
2022-10-13T00:31:16.789Z,24.40
2022-10-13T00:33:46.185Z,22.40
2022-10-13T00:36:14.170Z,24.88
2022-10-13T00:38:42.039Z,32.80
2022-10-13T00:41:10.004Z,30.70
2022-10-13T00:43:57.846Z,30.65
2022-10-13T00:46:27.396Z,30.33
2022-10-13T00:48:57.750Z,32.50
2022-10-13T00:51:30.494Z,33.20
2022-10-13T00:54:00.405Z,36.17
2022-10-13T00:56:30.019Z,31.38
2022-10-13T00:58:58.893Z,34.17
2022-10-13T01:01:26.850Z,34.35
2022-10-13T01:03:56.546Z,33.97
2022-10-13T01:06:24.681Z,32.78
2022-10-13T01:08:52.719Z,33.03
2022-10-13T01:11:42.158Z,33.25
2022-10-13T01:14:19.562Z,36.47
2022-10-13T01:16:54.144Z,35.70
2022-10-13T01:19:46.862Z,36.25
2022-10-13T01:22:28.203Z,35.50
2022-10-13T01:25:04.020Z,40.67
2022-10-13T01:27:52.802Z,40.15
2022-10-13T01:30:23.862Z,39.45
2022-10-13T01:33:14.029Z,41.28
2022-10-13T01:35:56.764Z,42.70
2022-10-13T01:38:35.028Z,42.28
2022-10-13T01:41:11.157Z,42.60
2022-10-13T01:43:44.231Z,38.00
2022-10-13T01:46:16.645Z,41.83
2022-10-13T01:51:16.766Z,42.92
2022-10-13T01:53:46.576Z,44.78
2022-10-13T01:56:15.509Z,43.88
2022-10-13T01:58:43.477Z,42.53
2022-10-13T02:01:23.535Z,44.10
2022-10-13T02:04:02.361Z,42.13
2022-10-13T02:06:33.828Z,42.22
2022-10-13T02:09:09.509Z,40.65
2022-10-13T02:11:40.049Z,43.40
2022-10-13T02:14:15.833Z,43.05
2022-10-13T02:16:47.093Z,43.65
2022-10-13T02:19:18.199Z,47.63
2022-10-13T02:21:47.000Z,46.67
2022-10-13T02:24:15.142Z,48.30
2022-10-13T02:26:43.486Z,50.38
2022-10-13T02:29:12.997Z,50.03
2022-10-13T02:31:42.390Z,49.92
2022-10-13T02:34:12.222Z,48.00
2022-10-13T02:36:41.021Z,49.50
2022-10-13T02:39:11.309Z,52.90
2022-10-13T02:41:39.656Z,53.53
2022-10-13T02:44:08.089Z,51.13
2022-10-13T02:46:36.146Z,53.50
2022-10-13T02:49:04.116Z,48.58
2022-10-13T02:51:37.505Z,48.90
2022-10-13T02:54:07.973Z,46.28
2022-10-13T02:56:35.838Z,48.75
2022-10-13T02:59:03.742Z,48.55
2022-10-13T03:01:31.697Z,44.50
2022-10-13T03:03:59.650Z,46.20
2022-10-13T03:06:27.628Z,42.95
2022-10-13T03:08:56.845Z,42.17
2022-10-13T03:11:24.711Z,43.63
2022-10-13T03:13:52.657Z,43.60
2022-10-13T03:16:20.634Z,46.80
2022-10-13T03:18:48.508Z,45.50
2022-10-13T03:21:17.051Z,44.05
2022-10-13T03:23:44.993Z,42.63
2022-10-13T03:26:15.541Z,42.13
2022-10-13T03:28:43.505Z,46.63
2022-10-13T03:31:13.709Z,42.83
2022-10-13T03:33:42.010Z,42.55
2022-10-13T03:36:09.965Z,43.67
2022-10-13T03:38:38.093Z,41.35
2022-10-13T03:41:07.282Z,42.03
2022-10-13T03:43:36.799Z,41.15
2022-10-13T03:46:06.997Z,42.63
2022-10-13T03:48:36.490Z,43.63
2022-10-13T03:51:06.472Z,41.03
2022-10-13T03:53:35.007Z,41.85
2022-10-13T03:56:03.260Z,42.05
2022-10-13T03:58:31.867Z,44.38
2022-10-13T04:01:05.907Z,42.03
2022-10-13T04:03:34.939Z,43.78
2022-10-13T04:06:03.409Z,43.85
2022-10-13T04:08:31.963Z,39.40
2022-10-13T04:11:00.410Z,43.50
2022-10-13T04:13:28.311Z,42.28
2022-10-13T04:15:56.185Z,40.85
2022-10-13T04:18:25.409Z,42.78
2022-10-13T04:20:53.294Z,43.55
2022-10-13T04:23:21.255Z,46.78
2022-10-13T04:25:49.150Z,46.55
2022-10-13T04:28:17.118Z,44.20
2022-10-13T04:30:49.309Z,45.85
2022-10-13T04:33:17.546Z,45.25
2022-10-13T04:35:46.765Z,41.47
2022-10-13T04:38:14.645Z,41.05
2022-10-13T04:40:42.499Z,46.47
2022-10-13T04:43:10.390Z,44.95
2022-10-13T04:45:38.334Z,45.55
2022-10-13T04:48:06.535Z,46.97
2022-10-13T04:50:34.433Z,46.67
2022-10-13T04:53:03.666Z,44.30
2022-10-13T04:55:31.635Z,44.55
2022-10-13T04:57:59.528Z,45.67
2022-10-13T05:00:27.530Z,44.38
2022-10-13T05:02:55.491Z,47.53
2022-10-13T05:05:23.432Z,46.17
2022-10-13T05:07:51.295Z,45.88
2022-10-13T05:10:20.773Z,45.95
2022-10-13T05:12:48.631Z,45.58
2022-10-13T05:15:16.642Z,45.42
2022-10-13T05:17:44.839Z,44.38
2022-10-13T05:20:13.295Z,42.65
2022-10-13T05:22:41.161Z,42.75
2022-10-13T05:25:09.466Z,45.78
2022-10-13T05:27:38.739Z,44.90
2022-10-13T05:30:07.489Z,44.72
2022-10-13T05:32:36.591Z,45.47
2022-10-13T05:35:04.864Z,44.35
2022-10-13T05:37:32.766Z,41.70
2022-10-13T05:40:00.609Z,44.83
2022-10-13T05:42:30.750Z,45.28
2022-10-13T05:45:00.377Z,41.83
2022-10-13T05:47:28.354Z,43.50
2022-10-13T05:49:56.473Z,40.33
2022-10-13T05:52:26.141Z,39.67
2022-10-13T05:54:57.417Z,40.05
2022-10-13T05:57:28.506Z,39.17
2022-10-13T06:00:01.084Z,36.40
2022-10-13T06:02:34.944Z,38.08
2022-10-13T06:05:04.095Z,36.05
2022-10-13T06:07:32.310Z,33.38
2022-10-13T06:10:00.669Z,40.38
2022-10-13T06:12:28.529Z,40.20
2022-10-13T06:14:56.419Z,39.88
2022-10-13T06:17:25.704Z,43.97
2022-10-13T06:19:53.537Z,42.20
2022-10-13T06:22:22.291Z,45.38
2022-10-13T06:24:50.380Z,44.85
2022-10-13T06:27:18.265Z,47.17
2022-10-13T06:29:46.334Z,50.55
2022-10-13T06:32:14.172Z,48.38
2022-10-13T06:34:43.354Z,47.20
2022-10-13T06:37:11.250Z,50.33
2022-10-13T06:39:39.109Z,52.90
2022-10-13T06:42:07.021Z,47.20
2022-10-13T06:44:35.255Z,49.72
2022-10-13T06:47:03.617Z,48.75
2022-10-13T06:49:31.478Z,46.13
2022-10-13T06:52:00.817Z,49.67
2022-10-13T06:54:28.717Z,47.03
2022-10-13T06:56:56.565Z,46.42
2022-10-13T06:59:26.396Z,47.15
2022-10-13T07:01:54.511Z,44.63
2022-10-13T07:04:22.975Z,47.55
2022-10-13T07:06:52.655Z,43.35
2022-10-13T07:09:21.993Z,47.95
2022-10-13T07:11:50.213Z,46.10
2022-10-13T07:14:18.069Z,43.10
2022-10-13T07:16:45.921Z,41.40
2022-10-13T07:19:13.851Z,46.03
2022-10-13T07:21:41.917Z,42.58
2022-10-13T07:24:12.746Z,43.47
2022-10-13T07:26:41.986Z,39.92
2022-10-13T07:29:10.274Z,39.70
2022-10-13T07:31:38.200Z,39.58
2022-10-13T07:34:06.712Z,38.20
2022-10-13T07:36:35.491Z,36.03
2022-10-13T07:39:03.999Z,35.65
2022-10-13T07:41:31.861Z,35.95
2022-10-13T07:44:01.066Z,34.78
2022-10-13T07:46:29.835Z,32.30
2022-10-13T07:48:57.901Z,31.10
2022-10-13T07:51:25.814Z,31.75
2022-10-13T07:53:53.724Z,29.83
2022-10-13T07:56:21.671Z,30.42
2022-10-13T07:58:49.566Z,30.25
2022-10-13T08:01:19.359Z,27.90
2022-10-13T08:03:50.250Z,29.25
2022-10-13T08:06:18.790Z,28.30
2022-10-13T08:08:46.929Z,29.27
2022-10-13T08:11:17.234Z,29.13
2022-10-13T08:13:48.834Z,28.63
2022-10-13T08:16:18.393Z,28.02
2022-10-13T08:18:47.006Z,26.02
2022-10-13T08:24:06.446Z,26.38
2022-10-13T08:26:34.454Z,24.90
2022-10-13T08:29:20.879Z,25.60
2022-10-13T08:31:51.757Z,25.85
2022-10-13T08:34:20.313Z,23.17
2022-10-13T08:36:48.820Z,23.65
2022-10-13T08:39:16.743Z,21.88
2022-10-13T08:41:45.307Z,24.40
2022-10-13T08:47:19.218Z,24.70
2022-10-13T08:49:47.533Z,21.23
2022-10-13T08:52:21.054Z,20.33
2022-10-13T08:54:49.753Z,20.05
2022-10-13T08:57:18.757Z,20.88
2022-10-13T08:59:47.682Z,19.77
2022-10-13T09:02:24.824Z,20.85
2022-10-13T09:04:54.390Z,22.40
2022-10-13T09:07:27.515Z,24.23
2022-10-13T09:09:56.303Z,26.42
2022-10-13T09:12:25.809Z,26.33
2022-10-13T09:15:05.717Z,25.67
2022-10-13T09:17:35.670Z,26.08
2022-10-13T09:20:06.158Z,28.20
2022-10-13T09:22:36.604Z,29.45
2022-10-13T09:25:21.252Z,29.05
2022-10-13T09:27:51.484Z,29.17
2022-10-13T09:30:30.012Z,26.75
2022-10-13T09:33:16.288Z,28.70
2022-10-13T09:35:46.636Z,32.17
2022-10-13T09:38:17.068Z,29.85
2022-10-13T09:40:57.091Z,28.35
2022-10-13T09:43:30.664Z,28.52
2022-10-13T09:45:59.565Z,29.13
2022-10-13T09:48:31.183Z,27.73
2022-10-13T09:50:59.657Z,27.48
2022-10-13T09:53:32.189Z,26.73
2022-10-13T09:56:18.281Z,26.65
2022-10-13T09:58:51.690Z,26.30
2022-10-13T10:01:26.586Z,27.65
2022-10-13T10:03:58.115Z,25.73
2022-10-13T10:06:27.877Z,26.50
2022-10-13T10:09:04.347Z,25.25
2022-10-13T10:11:36.202Z,24.40
2022-10-13T10:14:16.481Z,24.92
2022-10-13T10:16:47.881Z,24.55
2022-10-13T10:19:22.308Z,27.37
2022-10-13T10:21:56.944Z,25.63
2022-10-13T10:24:29.622Z,24.85
2022-10-13T10:27:01.096Z,23.73
2022-10-13T10:29:42.066Z,24.00
2022-10-13T10:32:27.506Z,23.17
2022-10-13T10:35:00.801Z,23.48
2022-10-13T10:37:51.233Z,21.88
2022-10-13T10:40:32.254Z,22.90
2022-10-13T10:43:27.176Z,22.70
2022-10-13T10:45:57.913Z,22.52
2022-10-13T10:48:29.390Z,20.88
2022-10-13T10:50:59.002Z,19.30
2022-10-13T10:53:35.134Z,19.02
2022-10-13T10:56:10.290Z,20.38
2022-10-13T10:58:44.930Z,18.48
2022-10-13T11:01:28.369Z,19.17
2022-10-13T11:04:02.178Z,17.75
2022-10-13T11:06:38.652Z,19.23
2022-10-13T11:09:07.492Z,18.40
2022-10-13T11:11:40.427Z,18.23
2022-10-13T11:14:31.920Z,18.60
2022-10-13T11:17:28.737Z,16.52
2022-10-13T11:19:56.951Z,19.02
2022-10-13T11:22:28.331Z,19.42
2022-10-13T11:25:24.955Z,17.92
2022-10-13T11:27:54.227Z,16.48
2022-10-13T11:30:44.509Z,16.00
2022-10-13T11:33:53.064Z,15.93
2022-10-13T11:36:51.111Z,16.17
2022-10-13T11:39:53.109Z,17.20
2022-10-13T11:42:50.432Z,19.03
2022-10-13T11:45:42.937Z,18.85
2022-10-13T11:48:49.790Z,18.73
2022-10-13T11:51:27.236Z,19.40
2022-10-13T11:54:00.648Z,19.15
2022-10-13T11:56:39.400Z,19.65
2022-10-13T11:59:24.336Z,21.33
2022-10-13T12:01:58.751Z,18.73
2022-10-13T12:04:29.164Z,20.35
2022-10-13T12:07:01.439Z,19.23
2022-10-13T12:12:02.439Z,19.48
2022-10-13T12:17:24.712Z,19.77
2022-10-13T12:19:53.090Z,19.70
2022-10-13T12:22:21.054Z,21.55
2022-10-13T12:24:59.641Z,18.70
2022-10-13T12:27:28.534Z,19.88
2022-10-13T12:29:56.675Z,19.85
2022-10-13T12:32:27.847Z,21.35
2022-10-13T12:34:55.941Z,22.27
2022-10-13T12:37:29.620Z,22.58
2022-10-13T12:39:59.134Z,22.52
2022-10-13T12:42:31.567Z,23.58
2022-10-13T12:45:01.382Z,22.30
2022-10-13T12:47:46.802Z,23.05
2022-10-13T12:50:38.191Z,23.42
2022-10-13T12:53:16.430Z,24.30
2022-10-13T12:55:55.217Z,23.30
2022-10-13T12:58:27.018Z,25.35
2022-10-13T13:01:22.339Z,23.00
2022-10-13T13:03:58.970Z,23.30
2022-10-13T13:06:32.017Z,25.02
2022-10-13T13:09:28.431Z,25.13
2022-10-13T13:12:24.507Z,22.25
2022-10-13T13:14:55.208Z,21.35
2022-10-13T13:17:53.335Z,22.35
2022-10-13T13:20:26.889Z,15.00
2022-10-13T13:22:55.180Z,13.70
2022-10-13T13:25:23.441Z,9.70
2022-10-13T13:27:51.854Z,6.65
2022-10-13T13:30:21.973Z,4.80
2022-10-13T13:32:49.980Z,3.72
2022-10-13T13:35:18.457Z,3.15
2022-10-13T13:37:51.007Z,2.88
2022-10-13T13:40:20.997Z,3.05
2022-10-13T13:42:48.997Z,3.42
2022-10-13T13:45:18.410Z,3.50
2022-10-13T13:47:46.793Z,4.00
2022-10-13T13:50:18.662Z,3.80
2022-10-13T13:52:48.317Z,3.67
2022-10-13T13:55:16.427Z,3.90
2022-10-13T13:57:45.264Z,3.38
2022-10-13T14:00:15.381Z,3.72
2022-10-13T14:02:44.005Z,3.08
2022-10-13T14:05:12.437Z,3.30
2022-10-13T14:07:40.665Z,3.17
2022-10-13T14:10:11.589Z,2.92
2022-10-13T14:12:40.023Z,2.92
2022-10-13T14:15:09.101Z,2.90
2022-10-13T14:17:37.022Z,3.03
2022-10-13T14:20:05.584Z,2.67
2022-10-13T14:22:33.495Z,2.67
2022-10-13T14:25:01.364Z,2.40
2022-10-13T14:27:31.167Z,2.42
2022-10-13T14:29:59.031Z,2.60
2022-10-13T14:32:26.943Z,2.90
2022-10-13T14:34:54.846Z,2.90
2022-10-13T14:37:23.884Z,2.83
2022-10-13T14:39:52.941Z,2.65
2022-10-13T14:42:20.814Z,2.30
2022-10-13T14:44:50.019Z,2.30
2022-10-13T14:47:18.186Z,1.75
2022-10-13T14:49:46.165Z,2.22
2022-10-13T14:52:14.071Z,1.85
2022-10-13T14:54:44.843Z,1.70
2022-10-13T14:57:15.783Z,1.60
2022-10-13T14:59:44.401Z,1.60
2022-10-13T15:02:14.013Z,1.75
2022-10-13T15:04:42.134Z,1.88
2022-10-13T15:07:09.989Z,1.80
2022-10-13T15:09:52.375Z,1.52
2022-10-13T15:12:21.811Z,1.60
2022-10-13T15:14:49.906Z,1.63
2022-10-13T15:17:19.146Z,1.70
2022-10-13T15:19:47.048Z,1.63
2022-10-13T15:22:15.131Z,1.55
2022-10-13T15:24:43.390Z,1.50
2022-10-13T15:27:11.298Z,1.55
2022-10-13T15:29:39.183Z,1.70
2022-10-13T15:32:11.275Z,1.98
2022-10-13T15:34:41.091Z,2.20
2022-10-13T15:37:09.130Z,1.75
2022-10-13T15:39:37.235Z,2.08
2022-10-13T15:42:06.250Z,1.92
2022-10-13T15:44:57.453Z,1.88
2022-10-13T15:47:22.515Z,1.92
2022-10-13T15:49:51.781Z,2.03
2022-10-13T15:52:19.991Z,2.30
2022-10-13T15:54:51.261Z,2.20
2022-10-13T15:57:19.211Z,2.08
2022-10-13T15:59:47.115Z,2.33
2022-10-13T16:02:15.002Z,2.50
2022-10-13T16:04:42.849Z,2.40
2022-10-13T16:07:12.071Z,2.40
2022-10-13T16:09:40.254Z,2.50
2022-10-13T16:12:08.385Z,2.38
2022-10-13T16:14:36.322Z,2.42
2022-10-13T16:17:04.450Z,2.45
2022-10-13T16:19:32.338Z,2.47
2022-10-13T16:22:00.239Z,2.63
2022-10-13T16:24:29.853Z,2.30
2022-10-13T16:26:57.723Z,2.50
2022-10-13T16:29:25.623Z,2.47
2022-10-13T16:31:53.539Z,2.58
2022-10-13T16:34:22.809Z,2.63
2022-10-13T16:36:50.739Z,2.80
2022-10-13T16:39:18.693Z,3.08
2022-10-13T16:41:47.954Z,3.40
2022-10-13T16:44:16.821Z,3.47
2022-10-13T16:46:45.002Z,3.17
2022-10-13T16:49:13.459Z,3.20
2022-10-13T16:51:41.366Z,3.45
2022-10-13T16:54:10.646Z,2.97
2022-10-13T16:56:38.579Z,3.15
2022-10-13T16:59:08.668Z,3.17
2022-10-13T17:01:37.582Z,3.88
2022-10-13T17:04:08.600Z,4.13
2022-10-13T17:06:38.810Z,3.58
2022-10-13T17:09:09.572Z,3.80
2022-10-13T17:11:42.883Z,3.97
2022-10-13T17:14:17.235Z,3.83
2022-10-13T17:16:45.683Z,4.18
2022-10-13T17:19:14.232Z,3.90
2022-10-13T17:21:42.469Z,4.13
2022-10-13T17:24:10.972Z,4.25
2022-10-13T17:26:38.879Z,4.88
2022-10-13T17:29:06.901Z,3.83
2022-10-13T17:31:36.336Z,4.15
2022-10-13T17:34:06.184Z,4.30
2022-10-13T17:36:34.561Z,4.43
2022-10-13T17:39:05.906Z,4.72
2022-10-13T17:41:33.963Z,5.20
2022-10-13T17:44:01.903Z,5.20
2022-10-13T17:46:36.687Z,5.38
2022-10-13T17:49:08.544Z,6.22
2022-10-13T17:51:36.548Z,7.55
2022-10-13T17:54:04.870Z,6.97
2022-10-13T17:56:32.898Z,7.45
2022-10-13T17:59:01.846Z,7.28
2022-10-13T18:01:31.586Z,7.88
2022-10-13T18:04:01.737Z,6.38
2022-10-13T18:06:37.955Z,6.53
2022-10-13T18:09:07.542Z,6.63
2022-10-13T18:11:36.116Z,6.35
2022-10-13T18:14:04.151Z,6.53
2022-10-13T18:16:32.535Z,6.38
2022-10-13T18:19:00.622Z,6.53
2022-10-13T18:21:31.850Z,7.50
2022-10-13T18:24:03.456Z,6.72
2022-10-13T18:26:34.989Z,7.07
2022-10-13T18:29:03.769Z,7.43
2022-10-13T18:31:34.181Z,8.05
2022-10-13T18:34:04.987Z,8.25
2022-10-13T18:36:34.657Z,8.40
2022-10-13T18:39:07.388Z,9.57
2022-10-13T18:41:36.687Z,9.07
2022-10-13T18:44:05.150Z,9.40
2022-10-13T18:46:33.642Z,9.63
2022-10-13T18:49:02.739Z,9.73
2022-10-13T18:51:35.984Z,9.23
2022-10-13T18:54:08.803Z,9.60
2022-10-13T18:56:37.613Z,11.48
2022-10-13T18:59:08.124Z,9.90
2022-10-13T19:01:37.905Z,9.52
2022-10-13T19:04:07.499Z,9.23
2022-10-13T19:06:36.002Z,10.32
2022-10-13T19:09:07.255Z,10.10
2022-10-13T19:11:36.511Z,10.55
2022-10-13T19:14:05.582Z,9.95
2022-10-13T19:16:37.198Z,11.65
2022-10-13T19:19:05.331Z,10.50
2022-10-13T19:21:33.610Z,11.10
2022-10-13T19:24:02.543Z,10.00
2022-10-13T19:26:33.771Z,10.00
2022-10-13T19:29:03.694Z,9.77
2022-10-13T19:31:33.399Z,8.65
2022-10-13T19:34:02.174Z,10.05
2022-10-13T19:36:33.278Z,11.55
2022-10-13T19:39:05.965Z,10.30
2022-10-13T19:41:36.243Z,9.52
2022-10-13T19:44:05.488Z,10.52
2022-10-13T19:46:34.315Z,10.70
2022-10-13T19:49:02.264Z,11.63
2022-10-13T19:51:30.102Z,10.82
2022-10-13T19:53:58.008Z,10.55
2022-10-13T19:56:28.226Z,11.68
2022-10-13T19:58:57.425Z,12.40
2022-10-13T20:01:25.480Z,11.43
2022-10-13T20:03:53.676Z,11.45
2022-10-13T20:06:24.771Z,12.57
2022-10-13T20:08:52.633Z,12.05
2022-10-13T20:11:24.109Z,12.95
2022-10-13T20:13:53.085Z,11.95
2022-10-13T20:16:25.682Z,12.60
2022-10-13T20:18:55.133Z,13.52
2022-10-13T20:21:24.402Z,12.18
2022-10-13T20:23:52.750Z,13.18
2022-10-13T20:26:21.739Z,13.48
2022-10-13T20:28:50.778Z,14.82
2022-10-13T20:31:21.487Z,13.88
2022-10-13T20:33:55.090Z,15.73
2022-10-13T20:36:23.138Z,14.68
2022-10-13T20:38:51.427Z,14.73
2022-10-13T20:41:21.238Z,15.98
2022-10-13T20:43:50.267Z,16.60
2022-10-13T20:46:19.902Z,17.00
2022-10-13T20:51:37.441Z,19.45
2022-10-13T20:54:06.212Z,20.40
2022-10-13T20:56:34.758Z,22.20
2022-10-13T20:59:04.190Z,23.73
2022-10-13T21:01:32.383Z,24.02
2022-10-13T21:04:00.280Z,24.50
2022-10-13T21:06:28.410Z,25.65
2022-10-13T21:08:57.871Z,28.08
2022-10-13T21:11:26.412Z,31.48
2022-10-13T21:13:54.679Z,31.52
2022-10-13T21:16:24.710Z,29.30
2022-10-13T21:18:53.239Z,31.15
2022-10-13T21:21:22.916Z,27.95
2022-10-13T21:23:51.293Z,30.83
2022-10-13T21:26:22.367Z,29.70
2022-10-13T21:28:51.628Z,29.42
2022-10-13T21:31:21.449Z,31.48
2022-10-13T21:33:49.967Z,27.90
2022-10-13T21:36:19.971Z,27.20
2022-10-13T21:38:48.831Z,27.73
2022-10-13T21:41:16.859Z,24.52
2022-10-13T21:43:46.133Z,29.10
2022-10-13T21:46:15.762Z,26.98
2022-10-13T21:48:44.229Z,27.52
2022-10-13T21:51:14.202Z,24.55
2022-10-13T21:53:42.842Z,30.52
2022-10-13T21:56:12.429Z,25.27
2022-10-13T21:58:40.729Z,28.60
2022-10-13T22:01:10.252Z,28.13
2022-10-13T22:03:38.221Z,27.83
2022-10-13T22:06:07.659Z,27.73
2022-10-13T22:08:38.999Z,29.35
2022-10-13T22:11:08.618Z,31.15
2022-10-13T22:13:37.229Z,39.20
2022-10-13T22:16:05.986Z,33.28
2022-10-13T22:18:35.387Z,44.42
2022-10-13T22:21:04.045Z,40.90
2022-10-13T22:23:31.906Z,36.95
2022-10-13T22:26:00.312Z,33.28
2022-10-13T22:28:30.323Z,35.08
2022-10-13T22:31:04.655Z,32.33
2022-10-13T22:33:32.791Z,33.10
2022-10-13T22:36:02.346Z,36.65
2022-10-13T22:38:30.187Z,32.88
2022-10-13T22:41:02.808Z,35.08
2022-10-13T22:43:30.870Z,38.70
2022-10-13T22:45:58.803Z,34.78
2022-10-13T22:48:26.714Z,32.65
2022-10-13T22:50:54.648Z,36.17
2022-10-13T22:53:23.899Z,32.38
2022-10-13T22:55:51.779Z,30.73
2022-10-13T22:58:19.643Z,31.13
2022-10-13T23:00:47.562Z,29.27
2022-10-13T23:03:15.831Z,30.70
2022-10-13T23:05:43.907Z,30.92
2022-10-13T23:08:11.824Z,28.92
2022-10-13T23:10:41.107Z,29.95
2022-10-13T23:13:08.983Z,33.22
2022-10-13T23:15:39.034Z,35.05
2022-10-13T23:18:07.053Z,33.92
2022-10-13T23:20:34.927Z,33.33
2022-10-13T23:23:02.822Z,35.45
2022-10-13T23:25:30.711Z,32.50
2022-10-13T23:28:00.680Z,35.83
2022-10-13T23:30:28.682Z,39.45
2022-10-13T23:32:56.870Z,40.67
2022-10-13T23:35:24.746Z,43.40
2022-10-13T23:37:52.984Z,44.67
2022-10-13T23:40:21.366Z,42.85
2022-10-13T23:42:49.247Z,46.35
2022-10-13T23:45:18.623Z,53.95
2022-10-13T23:47:46.526Z,51.78
2022-10-13T23:50:14.379Z,51.88
2022-10-13T23:52:42.246Z,58.83
2022-10-13T23:55:10.523Z,59.47
2022-10-13T23:57:38.385Z,59.97
